createdAt,value
2022-09-28T00:02:44.783Z,96237.41
2022-09-28T00:05:33.463Z,96239.63
2022-09-28T00:08:23.332Z,96215.09
2022-09-28T00:11:15.555Z,96306.88
2022-09-28T00:14:07.436Z,96336.00
2022-09-28T00:16:56.023Z,96304.09
2022-09-28T00:19:45.278Z,96305.94
2022-09-28T00:22:33.968Z,96306.09
2022-09-28T00:25:25.119Z,96297.91
2022-09-28T00:28:13.616Z,96311.41
2022-09-28T00:31:02.277Z,96227.94
2022-09-28T00:33:52.045Z,96258.44
2022-09-28T00:36:40.968Z,96326.44
2022-09-28T00:39:31.802Z,96202.88
2022-09-28T00:42:23.448Z,96318.28
2022-09-28T00:45:12.143Z,96302.53
2022-09-28T00:48:00.921Z,96245.22
2022-09-28T00:50:49.443Z,96285.16
2022-09-28T00:53:39.736Z,96250.59
2022-09-28T00:56:32.445Z,96223.00
2022-09-28T00:59:25.098Z,96311.03
2022-09-28T01:02:14.072Z,96301.16
2022-09-28T01:05:04.663Z,96274.25
2022-09-28T01:07:53.243Z,96314.72
2022-09-28T01:10:43.948Z,96326.34
2022-09-28T01:13:34.194Z,96325.72
2022-09-28T01:16:35.483Z,96326.41
2022-09-28T01:19:47.666Z,96269.00
2022-09-28T01:23:06.637Z,96322.34
2022-09-28T01:26:00.372Z,96327.63
2022-09-28T01:28:54.749Z,96247.16
2022-09-28T01:31:48.855Z,96277.66
2022-09-28T01:34:44.613Z,96311.28
2022-09-28T01:37:39.792Z,96330.81
2022-09-28T01:40:30.129Z,96251.16
2022-09-28T01:43:22.574Z,96262.34
2022-09-28T01:46:16.399Z,96311.03
2022-09-28T01:49:09.347Z,96305.97
2022-09-28T01:52:03.942Z,96244.06
2022-09-28T01:54:58.624Z,96300.28
2022-09-28T01:57:51.776Z,96291.78
2022-09-28T02:00:44.446Z,96207.13
2022-09-28T02:03:40.262Z,96262.13
2022-09-28T02:06:34.647Z,96299.44
2022-09-28T02:09:31.687Z,96288.88
2022-09-28T02:12:29.520Z,96285.06
2022-09-28T02:15:21.755Z,96118.69
2022-09-28T02:18:11.723Z,96120.72
2022-09-28T02:21:08.258Z,96261.28
2022-09-28T02:23:59.612Z,96243.81
2022-09-28T02:26:51.174Z,96193.56
2022-09-28T02:29:39.756Z,96250.00
2022-09-28T02:32:32.565Z,96223.91
2022-09-28T02:35:22.181Z,96267.28
2022-09-28T02:38:13.791Z,96232.72
2022-09-28T02:41:06.865Z,96168.69
2022-09-28T02:44:08.650Z,96197.38
2022-09-28T02:47:05.751Z,96276.78
2022-09-28T02:50:00.855Z,96270.38
2022-09-28T02:53:06.537Z,95851.75
2022-09-28T02:56:11.468Z,96273.16
2022-09-28T02:59:09.217Z,96202.81
2022-09-28T03:02:04.053Z,96113.97
2022-09-28T03:05:05.422Z,96307.81
2022-09-28T03:08:00.690Z,96238.75
2022-09-28T03:10:55.397Z,96221.25
2022-09-28T03:13:45.530Z,96297.25
2022-09-28T03:16:34.294Z,96222.94
2022-09-28T03:19:26.193Z,96198.63
2022-09-28T03:22:14.712Z,96164.00
2022-09-28T03:25:03.133Z,96201.22
2022-09-28T03:27:51.712Z,96264.91
2022-09-28T03:30:42.237Z,96232.22
2022-09-28T03:33:31.118Z,96260.34
2022-09-28T03:36:19.903Z,96249.09
2022-09-28T03:39:08.497Z,96239.53
2022-09-28T03:41:56.998Z,96255.91
2022-09-28T03:44:45.596Z,96144.69
2022-09-28T03:47:35.752Z,96130.22
2022-09-28T03:50:24.288Z,96247.56
2022-09-28T03:53:12.759Z,96219.84
2022-09-28T03:56:05.142Z,96254.34
2022-09-28T03:58:53.649Z,96132.19
2022-09-28T04:01:42.590Z,96208.94
2022-09-28T04:04:32.750Z,96253.78
2022-09-28T04:07:21.273Z,96121.28
2022-09-28T04:10:10.904Z,96184.72
2022-09-28T04:12:59.658Z,96147.22
2022-09-28T04:15:54.663Z,96109.53
2022-09-28T04:18:44.059Z,96174.31
2022-09-28T04:21:34.265Z,96127.44
2022-09-28T04:24:22.802Z,96112.16
2022-09-28T04:27:28.530Z,96117.47
2022-09-28T04:30:17.578Z,95859.59
2022-09-28T04:33:06.130Z,96223.13
2022-09-28T04:35:54.660Z,96206.34
2022-09-28T04:38:53.528Z,96222.34
2022-09-28T04:41:42.564Z,96212.69
2022-09-28T04:44:31.088Z,96188.75
2022-09-28T04:47:19.664Z,96190.16
2022-09-28T04:50:09.012Z,96216.53
2022-09-28T04:52:57.539Z,96240.13
2022-09-28T04:55:56.712Z,96163.41
2022-09-28T04:58:50.285Z,96255.81
2022-09-28T05:01:41.039Z,96249.84
2022-09-28T05:04:30.674Z,96145.94
2022-09-28T05:07:19.178Z,96153.34
2022-09-28T05:10:08.104Z,96148.25
2022-09-28T05:12:57.956Z,96256.84
2022-09-28T05:15:46.492Z,96247.94
2022-09-28T05:18:35.010Z,96213.31
2022-09-28T05:21:25.598Z,96168.38
2022-09-28T05:24:14.442Z,96228.22
2022-09-28T05:27:03.307Z,96242.16
2022-09-28T05:29:53.212Z,96196.59
2022-09-28T05:32:42.150Z,96202.00
2022-09-28T05:35:30.849Z,96232.06
2022-09-28T05:38:19.383Z,96238.97
2022-09-28T05:41:08.051Z,96169.97
2022-09-28T05:43:57.643Z,96195.34
2022-09-28T05:46:47.586Z,96169.69
2022-09-28T05:49:36.105Z,96232.94
2022-09-28T05:52:24.583Z,96116.69
2022-09-28T05:55:13.252Z,96213.72
2022-09-28T05:58:03.046Z,96203.03
2022-09-28T06:00:55.636Z,96200.09
2022-09-28T06:03:45.505Z,96143.22
2022-09-28T06:06:35.926Z,96080.53
2022-09-28T06:09:26.067Z,96126.56
2022-09-28T06:12:16.145Z,96122.19
2022-09-28T06:15:05.512Z,96129.25
2022-09-28T06:17:58.837Z,96195.75
2022-09-28T06:20:48.762Z,96117.47
2022-09-28T06:23:37.380Z,96200.25
2022-09-28T06:26:25.976Z,96204.03
2022-09-28T06:29:20.040Z,96178.19
2022-09-28T06:32:08.695Z,96172.78
2022-09-28T06:34:57.407Z,96170.13
2022-09-28T06:37:47.502Z,96207.47
2022-09-28T06:40:36.866Z,96152.31
2022-09-28T06:43:25.841Z,96119.78
2022-09-28T06:46:15.190Z,96163.84
2022-09-28T06:49:04.825Z,96212.13
2022-09-28T06:51:53.619Z,96068.97
2022-09-28T06:54:43.525Z,96085.00
2022-09-28T06:57:32.183Z,96186.06
2022-09-28T07:00:20.832Z,96195.59
2022-09-28T07:03:12.625Z,96134.59
2022-09-28T07:06:02.242Z,96201.63
2022-09-28T07:08:56.970Z,96202.53
2022-09-28T07:11:55.987Z,96200.13
2022-09-28T07:14:48.108Z,96157.28
2022-09-28T07:17:48.004Z,96133.50
2022-09-28T07:20:53.149Z,95915.06
2022-09-28T07:23:52.947Z,96045.44
2022-09-28T07:26:43.404Z,96039.06
2022-09-28T07:29:33.522Z,96054.81
2022-09-28T07:32:22.876Z,96135.78
2022-09-28T07:35:11.414Z,96130.91
2022-09-28T07:38:01.732Z,96158.41
2022-09-28T07:41:07.779Z,96157.84
2022-09-28T07:43:56.347Z,96087.00
2022-09-28T07:46:46.774Z,96078.69
2022-09-28T07:49:35.442Z,96146.69
2022-09-28T07:52:26.434Z,96033.06
2022-09-28T07:55:15.038Z,96135.91
2022-09-28T07:58:03.633Z,96049.00
2022-09-28T08:00:52.934Z,96128.69
2022-09-28T08:03:45.468Z,96005.91
2022-09-28T08:06:33.958Z,96154.25
2022-09-28T08:09:22.518Z,96045.75
2022-09-28T08:12:11.818Z,96139.63
2022-09-28T08:15:00.342Z,96128.63
2022-09-28T08:17:50.106Z,96097.25
2022-09-28T08:20:57.742Z,95895.13
2022-09-28T08:23:46.342Z,96140.63
2022-09-28T08:26:35.017Z,96058.09
2022-09-28T08:29:23.778Z,96102.59
2022-09-28T08:32:12.418Z,96116.19
2022-09-28T08:35:01.058Z,96137.75
2022-09-28T08:37:55.688Z,96104.34
2022-09-28T08:40:53.601Z,96056.47
2022-09-28T08:43:56.839Z,96125.97
2022-09-28T08:46:49.137Z,96117.41
2022-09-28T08:49:43.446Z,96084.94
2022-09-28T08:52:35.924Z,96098.72
2022-09-28T08:55:32.106Z,96051.97
2022-09-28T08:58:28.684Z,96066.72
2022-09-28T09:01:20.680Z,96106.78
2022-09-28T09:04:10.896Z,96108.84
2022-09-28T09:07:23.629Z,96119.00
2022-09-28T09:10:30.636Z,96116.75
2022-09-28T09:13:52.914Z,95964.00
2022-09-28T09:17:00.267Z,96107.47
2022-09-28T09:19:54.760Z,96102.66
2022-09-28T09:22:53.966Z,96070.94
2022-09-28T09:25:48.224Z,96012.41
2022-09-28T09:28:52.259Z,96062.03
2022-09-28T09:31:59.747Z,96108.09
2022-09-28T09:35:14.869Z,96021.97
2022-09-28T09:38:17.579Z,96102.47
2022-09-28T09:41:17.061Z,96082.56
2022-09-28T09:44:33.953Z,95915.34
2022-09-28T09:47:29.273Z,96057.34
2022-09-28T09:50:30.298Z,96099.75
2022-09-28T09:53:28.483Z,96092.13
2022-09-28T09:56:21.993Z,96060.94
2022-09-28T09:59:16.514Z,96040.31
2022-09-28T10:02:17.059Z,96046.06
2022-09-28T10:05:16.227Z,96079.34
2022-09-28T10:08:12.965Z,96048.28
2022-09-28T10:11:09.679Z,96073.22
2022-09-28T10:13:58.563Z,96078.34
2022-09-28T10:16:49.597Z,95964.84
2022-09-28T10:19:38.472Z,95999.50
2022-09-28T10:22:28.727Z,96066.72
2022-09-28T10:25:17.443Z,95978.81
2022-09-28T10:28:08.218Z,95983.47
2022-09-28T10:30:57.084Z,96052.59
2022-09-28T10:33:47.225Z,96073.09
2022-09-28T10:36:48.994Z,96020.44
2022-09-28T10:39:41.309Z,96012.13
2022-09-28T10:42:32.947Z,96064.16
2022-09-28T10:45:23.515Z,95924.13
2022-09-28T10:48:20.440Z,96069.28
2022-09-28T10:51:10.472Z,95971.31
2022-09-28T10:54:02.163Z,95979.38
2022-09-28T10:56:56.140Z,96067.31
2022-09-28T10:59:46.922Z,96044.03
2022-09-28T11:02:38.935Z,95969.22
2022-09-28T11:05:29.175Z,96011.34
2022-09-28T11:08:26.744Z,95873.16
2022-09-28T11:11:17.547Z,96049.13
2022-09-28T11:14:06.231Z,96050.78
2022-09-28T11:17:20.403Z,95909.44
2022-09-28T11:20:36.127Z,95949.56
2022-09-28T11:23:31.294Z,96024.75
2022-09-28T11:26:20.244Z,95944.03
2022-09-28T11:29:21.704Z,96026.81
2022-09-28T11:32:15.675Z,96032.06
2022-09-28T11:35:07.003Z,95981.53
2022-09-28T11:38:11.093Z,95953.56
2022-09-28T11:41:17.840Z,95996.78
2022-09-28T11:44:41.452Z,95980.56
2022-09-28T11:47:57.832Z,95970.22
2022-09-28T11:50:51.011Z,95980.59
2022-09-28T11:53:45.195Z,96005.38
2022-09-28T11:56:39.241Z,95949.75
2022-09-28T11:59:32.859Z,95942.19
2022-09-28T12:02:26.357Z,95884.81
2022-09-28T12:05:21.795Z,95885.59
2022-09-28T12:08:16.027Z,95949.22
2022-09-28T12:11:11.098Z,95963.41
2022-09-28T12:14:04.024Z,95899.81
2022-09-28T12:17:06.834Z,95967.09
2022-09-28T12:20:04.365Z,95962.00
2022-09-28T12:23:04.366Z,95918.97
2022-09-28T12:25:56.901Z,95955.59
2022-09-28T12:28:49.316Z,95911.34
2022-09-28T12:31:44.171Z,95942.09
2022-09-28T12:34:33.205Z,95938.97
2022-09-28T12:37:34.420Z,95806.25
2022-09-28T12:40:38.353Z,95907.09
2022-09-28T12:43:42.049Z,95869.53
2022-09-28T12:46:47.944Z,95932.56
2022-09-28T12:50:36.948Z,95912.38
2022-09-28T12:53:12.075Z,95914.88
2022-09-28T12:56:04.785Z,95920.34
2022-09-28T12:59:02.488Z,95936.31
2022-09-28T13:02:16.072Z,95879.03
2022-09-28T13:05:24.408Z,95867.47
2022-09-28T13:08:20.686Z,95922.63
2022-09-28T13:11:21.050Z,95849.31
2022-09-28T13:14:40.282Z,95929.28
2022-09-28T13:17:46.703Z,95850.63
2022-09-28T13:20:49.345Z,95902.00
2022-09-28T13:23:42.708Z,95921.16
2022-09-28T13:26:35.567Z,95926.81
2022-09-28T13:29:27.192Z,95867.19
2022-09-28T13:32:16.754Z,95924.84
2022-09-28T13:35:07.720Z,95923.06
2022-09-28T13:38:29.340Z,95916.81
2022-09-28T13:41:21.425Z,95827.78
2022-09-28T13:44:59.645Z,95908.88
2022-09-28T13:47:59.416Z,95830.69
2022-09-28T13:51:11.057Z,95908.03
2022-09-28T13:54:13.295Z,95818.56
2022-09-28T13:57:14.125Z,95882.69
2022-09-28T14:00:16.350Z,95822.75
2022-09-28T14:03:15.091Z,95901.91
2022-09-28T14:06:22.142Z,95810.47
2022-09-28T14:09:27.425Z,95907.34
2022-09-28T14:12:49.865Z,95904.81
2022-09-28T14:15:47.095Z,95849.56
2022-09-28T14:18:36.235Z,95880.16
2022-09-28T14:21:54.046Z,95833.38
2022-09-28T14:25:07.105Z,95892.19
2022-09-28T14:28:07.115Z,95872.34
2022-09-28T14:30:58.632Z,95908.88
2022-09-28T14:33:58.365Z,95920.03
2022-09-28T14:37:08.018Z,95872.47
2022-09-28T14:40:14.082Z,95902.28
2022-09-28T14:43:26.134Z,95897.09
2022-09-28T14:46:36.329Z,95901.78
2022-09-28T14:49:47.165Z,95907.44
2022-09-28T14:52:47.801Z,95905.50
2022-09-28T14:55:48.800Z,95863.41
2022-09-28T14:58:38.870Z,95861.31
2022-09-28T15:01:28.082Z,95901.56
2022-09-28T15:04:18.270Z,95893.59
2022-09-28T15:07:07.023Z,95792.28
2022-09-28T15:09:58.800Z,95881.41
2022-09-28T15:12:47.622Z,95791.75
2022-09-28T15:15:39.415Z,95897.63
2022-09-28T15:19:03.438Z,95907.97
2022-09-28T15:21:52.976Z,95876.47
2022-09-28T15:24:46.178Z,95908.69
2022-09-28T15:27:41.416Z,95916.94
2022-09-28T15:30:32.111Z,95911.53
2022-09-28T15:33:43.998Z,95917.84
2022-09-28T15:36:36.009Z,95899.75
2022-09-28T15:39:32.046Z,95907.59
2022-09-28T15:42:21.179Z,95899.09
2022-09-28T15:45:28.136Z,95921.00
2022-09-28T15:48:21.827Z,95887.56
2022-09-28T15:51:12.249Z,95844.84
2022-09-28T15:54:04.525Z,95916.22
2022-09-28T15:56:57.935Z,95931.72
2022-09-28T15:59:57.131Z,95931.06
2022-09-28T16:03:05.546Z,95891.94
2022-09-28T16:06:08.004Z,95852.53
2022-09-28T16:08:56.554Z,95933.50
2022-09-28T16:11:45.295Z,95939.00
2022-09-28T16:14:34.024Z,95906.59
2022-09-28T16:17:33.043Z,95912.16
2022-09-28T16:20:30.128Z,95928.28
2022-09-28T16:23:25.234Z,95926.28
2022-09-28T16:26:26.638Z,95935.59
2022-09-28T16:29:27.346Z,95875.13
2022-09-28T16:32:50.487Z,95937.09
2022-09-28T16:35:53.404Z,95873.06
2022-09-28T16:38:44.832Z,95939.41
2022-09-28T16:41:35.677Z,95903.44
2022-09-28T16:44:27.713Z,95878.34
2022-09-28T16:47:16.255Z,95906.34
2022-09-28T16:50:06.924Z,95947.94
2022-09-28T16:53:19.646Z,95949.53
2022-09-28T16:56:08.977Z,95936.03
2022-09-28T16:58:58.282Z,95956.69
2022-09-28T17:01:47.397Z,95953.09
2022-09-28T17:04:36.130Z,95955.31
2022-09-28T17:07:25.110Z,95880.56
2022-09-28T17:10:30.620Z,95905.63
2022-09-28T17:13:19.126Z,95826.97
2022-09-28T17:16:13.098Z,95858.66
2022-09-28T17:19:02.037Z,95913.94
2022-09-28T17:21:51.285Z,95922.88
2022-09-28T17:24:40.057Z,95908.56
2022-09-28T17:27:30.895Z,95810.75
2022-09-28T17:30:23.851Z,95831.38
2022-09-28T17:33:14.735Z,95938.56
2022-09-28T17:36:05.369Z,95864.09
2022-09-28T17:38:55.364Z,95883.91
2022-09-28T17:41:44.124Z,95900.78
2022-09-28T17:44:34.203Z,95933.81
2022-09-28T17:47:23.252Z,95899.41
2022-09-28T17:50:21.543Z,95865.16
2022-09-28T17:53:10.984Z,95866.59
2022-09-28T17:56:00.115Z,95936.44
2022-09-28T17:58:49.232Z,95890.69
2022-09-28T18:01:40.845Z,95861.38
2022-09-28T18:04:50.891Z,95881.47
2022-09-28T18:07:38.481Z,95885.22
2022-09-28T18:10:30.045Z,95831.34
2022-09-28T18:13:18.825Z,95915.88
2022-09-28T18:16:07.984Z,95918.78
2022-09-28T18:18:59.693Z,95842.81
2022-09-28T18:21:48.765Z,95890.41
2022-09-28T18:24:40.301Z,95948.84
2022-09-28T18:27:30.552Z,95868.75
2022-09-28T18:30:19.746Z,95896.50
2022-09-28T18:33:09.090Z,95951.19
2022-09-28T18:35:59.243Z,95952.31
2022-09-28T18:38:48.038Z,95911.31
2022-09-28T18:41:36.724Z,95876.81
2022-09-28T18:44:25.490Z,95954.50
2022-09-28T18:47:15.420Z,95944.06
2022-09-28T18:50:04.350Z,95907.66
2022-09-28T18:53:11.515Z,95845.28
2022-09-28T18:56:00.742Z,95943.34
2022-09-28T18:58:51.853Z,95951.19
2022-09-28T19:01:42.010Z,95915.84
2022-09-28T19:04:31.346Z,95903.53
2022-09-28T19:07:20.204Z,95968.69
2022-09-28T19:10:10.884Z,95881.19
2022-09-28T19:13:01.814Z,95952.59
2022-09-28T19:15:51.298Z,95890.91
2022-09-28T19:18:40.949Z,95961.09
2022-09-28T19:21:30.716Z,95947.84
2022-09-28T19:24:21.161Z,95961.56
2022-09-28T19:27:11.647Z,95846.66
2022-09-28T19:30:00.555Z,95929.25
2022-09-28T19:32:49.154Z,95902.47
2022-09-28T19:35:38.031Z,95939.03
2022-09-28T19:38:29.480Z,95877.38
2022-09-28T19:41:43.040Z,95875.03
2022-09-28T19:44:36.201Z,95962.00
2022-09-28T19:47:25.227Z,95950.41
2022-09-28T19:50:13.936Z,95812.09
2022-09-28T19:53:02.686Z,95880.19
2022-09-28T19:55:55.383Z,95955.06
2022-09-28T19:58:44.205Z,95934.25
2022-09-28T20:01:35.268Z,95949.06
2022-09-28T20:04:24.115Z,95977.38
2022-09-28T20:07:13.140Z,95983.78
2022-09-28T20:10:01.875Z,95964.19
2022-09-28T20:12:56.148Z,95918.34
2022-09-28T20:15:44.980Z,95907.00
2022-09-28T20:18:36.640Z,95814.56
2022-09-28T20:21:27.058Z,95986.88
2022-09-28T20:24:17.216Z,95960.75
2022-09-28T20:27:05.928Z,95944.59
2022-09-28T20:29:54.806Z,95982.53
2022-09-28T20:32:48.756Z,95979.91
2022-09-28T20:35:40.695Z,95986.09
2022-09-28T20:38:31.399Z,95985.94
2022-09-28T20:41:22.285Z,95880.50
2022-09-28T20:44:11.025Z,95911.38
2022-09-28T20:47:00.022Z,95866.25
2022-09-28T20:49:48.790Z,95895.00
2022-09-28T20:52:39.016Z,95959.41
2022-09-28T20:55:28.000Z,95954.09
2022-09-28T20:58:17.317Z,95893.50
2022-09-28T21:01:09.496Z,95894.53
2022-09-28T21:03:59.681Z,95938.34
2022-09-28T21:06:48.307Z,95978.31
2022-09-28T21:09:38.885Z,95992.22
2022-09-28T21:12:28.353Z,95920.44
2022-09-28T21:15:17.145Z,95956.28
2022-09-28T21:18:06.038Z,95972.34
2022-09-28T21:20:55.025Z,96017.81
2022-09-28T21:23:45.054Z,95939.13
2022-09-28T21:26:35.741Z,95980.66
2022-09-28T21:29:24.407Z,95996.44
2022-09-28T21:32:13.189Z,95944.53
2022-09-28T21:35:02.601Z,95900.19
2022-09-28T21:37:51.645Z,95980.97
2022-09-28T21:40:40.482Z,95906.19
2022-09-28T21:43:32.078Z,95942.53
2022-09-28T21:46:21.052Z,95863.19
2022-09-28T21:49:14.436Z,95924.34
2022-09-28T21:52:03.407Z,95959.53
2022-09-28T21:54:52.207Z,95944.75
2022-09-28T21:57:40.839Z,95880.97
2022-09-28T22:00:30.909Z,95984.97
2022-09-28T22:03:19.456Z,95986.88
2022-09-28T22:06:08.993Z,95946.06
2022-09-28T22:08:58.050Z,95903.81
2022-09-28T22:11:49.195Z,95983.19
2022-09-28T22:14:37.762Z,95973.34
2022-09-28T22:17:28.365Z,95926.03
2022-09-28T22:20:17.108Z,95928.16
2022-09-28T22:23:05.780Z,95947.56
2022-09-28T22:25:59.580Z,95995.00
2022-09-28T22:28:49.723Z,95929.44
2022-09-28T22:31:41.564Z,95883.09
2022-09-28T22:34:32.378Z,95913.22
2022-09-28T22:37:20.966Z,95983.94
2022-09-28T22:40:11.872Z,95990.56
2022-09-28T22:43:00.424Z,95871.22
2022-09-28T22:45:49.281Z,95997.19
2022-09-28T22:48:38.634Z,96000.25
2022-09-28T22:51:31.100Z,95909.81
2022-09-28T22:54:19.758Z,95999.41
2022-09-28T22:57:08.494Z,95877.50
2022-09-28T22:59:57.019Z,95971.97
2022-09-28T23:02:46.066Z,96001.09
2022-09-28T23:05:30.745Z,96001.09
2022-09-28T23:08:20.937Z,95990.56
2022-09-28T23:11:09.904Z,95986.63
2022-09-28T23:14:00.534Z,95988.44
2022-09-28T23:16:48.994Z,95985.63
2022-09-28T23:19:37.521Z,95953.44
2022-09-28T23:22:26.022Z,95980.91
2022-09-28T23:25:16.707Z,95981.97
2022-09-28T23:28:05.124Z,95973.13
2022-09-28T23:30:54.017Z,95965.63
2022-09-28T23:33:42.666Z,95986.56
2022-09-28T23:36:31.937Z,95963.72
2022-09-28T23:39:20.657Z,95976.97
2022-09-28T23:42:10.586Z,95961.97
2022-09-28T23:44:59.044Z,95979.69
2022-09-28T23:47:48.298Z,95982.63
2022-09-28T23:50:36.801Z,95967.53
2022-09-28T23:53:25.323Z,95988.91
2022-09-28T23:56:14.516Z,95982.13
2022-09-28T23:59:04.507Z,95971.19
